Time;durP1;ratioP1;P1;durP2;ratioP2;P2;SDS_P1;SDS_P2;PMS_P1;PMS_P2;Temp;Humidity;BMP_temperature;BMP_pressure;BME280_temperature;BME280_humidity;BME280_pressure;Samples;Min_cycle;Max_cycle;Signal;HPM_P1;HPM_P2
2022/04/18 00:00:00;;;;;;;9.67;7.23;;;12.30;99.90;;;;;;5064650;28;20647;-52
2022/04/18 00:02:27;;;;;;;10.17;6.83;;;12.30;99.90;;;;;;5066065;28;20210;-53
2022/04/18 00:04:54;;;;;;;9.07;7.43;;;12.30;99.90;;;;;;5065376;28;20207;-54
2022/04/18 00:07:21;;;;;;;9.70;7.07;;;12.20;99.90;;;;;;5068065;28;20571;-53
2022/04/18 00:09:48;;;;;;;8.10;6.80;;;12.20;99.90;;;;;;5066426;28;20262;-54
2022/04/18 00:12:15;;;;;;;8.53;7.03;;;12.10;99.90;;;;;;5062825;28;20600;-53
2022/04/18 00:14:42;;;;;;;9.93;6.47;;;12.00;99.90;;;;;;5064814;28;20297;-54
2022/04/18 00:17:09;;;;;;;9.00;6.43;;;12.00;99.90;;;;;;5063834;28;20256;-54
2022/04/18 00:19:39;;;;;;;9.53;6.83;;;12.00;99.90;;;;;;5065063;28;20224;-55
2022/04/18 00:22:06;;;;;;;13.70;6.93;;;12.10;99.90;;;;;;5063974;28;20269;-54
2022/04/18 00:24:33;;;;;;;12.60;6.93;;;12.10;99.90;;;;;;5063846;28;20743;-52
2022/04/18 00:27:03;;;;;;;7.50;6.33;;;11.90;99.90;;;;;;5063244;28;20227;-56
2022/04/18 00:29:30;;;;;;;8.03;6.27;;;11.90;99.90;;;;;;5065732;28;20227;-54
2022/04/18 00:31:57;;;;;;;7.80;5.83;;;11.90;99.90;;;;;;5061293;28;20667;-55
2022/04/18 00:34:24;;;;;;;7.67;5.60;;;12.00;99.90;;;;;;5060719;28;20196;-54
2022/04/18 00:36:51;;;;;;;8.77;5.87;;;12.00;99.90;;;;;;5062737;28;20204;-53
2022/04/18 00:39:20;;;;;;;6.93;5.03;;;11.90;99.90;;;;;;5063247;28;20298;-54
2022/04/18 00:41:47;;;;;;;6.43;5.33;;;11.90;99.90;;;;;;5063972;28;20297;-54
2022/04/18 00:44:14;;;;;;;6.70;5.30;;;11.90;99.90;;;;;;5065592;28;20585;-54
2022/04/18 00:46:41;;;;;;;9.87;5.53;;;11.90;99.90;;;;;;5061750;28;20256;-53
2022/04/18 00:49:08;;;;;;;6.50;5.40;;;11.90;99.90;;;;;;5064472;28;20196;-54
2022/04/18 00:51:35;;;;;;;7.17;5.80;;;11.80;99.90;;;;;;5062662;28;20240;-54
2022/04/18 00:54:02;;;;;;;6.03;5.23;;;11.90;99.90;;;;;;5060056;28;20330;-54
2022/04/18 00:56:29;;;;;;;6.03;5.07;;;11.80;99.90;;;;;;5067116;28;20196;-54
2022/04/18 00:58:56;;;;;;;8.53;5.63;;;11.60;99.90;;;;;;5062362;28;20227;-54
2022/04/18 01:01:26;;;;;;;7.53;4.97;;;11.60;99.90;;;;;;5065011;28;20196;-54
2022/04/18 01:03:53;;;;;;;6.53;4.73;;;11.60;99.90;;;;;;5065866;28;20561;-54
2022/04/18 01:06:20;;;;;;;6.93;4.70;;;11.60;99.90;;;;;;5067592;28;20199;-53
2022/04/18 01:08:48;;;;;;;6.47;4.80;;;11.70;99.90;;;;;;5061504;28;20199;-53
2022/04/18 01:11:16;;;;;;;7.17;5.10;;;11.60;99.90;;;;;;5067057;28;20207;-55
2022/04/18 01:13:44;;;;;;;7.73;4.90;;;11.70;99.90;;;;;;5060436;28;20805;-54
2022/04/18 01:16:12;;;;;;;6.10;4.33;;;11.60;99.90;;;;;;5062285;28;20199;-53
2022/04/18 01:18:40;;;;;;;6.43;4.60;;;11.50;99.90;;;;;;5063394;28;20204;-54
2022/04/18 01:21:09;;;;;;;5.60;4.63;;;11.50;99.90;;;;;;5063561;28;20196;-54
2022/04/18 01:23:37;;;;;;;6.53;4.70;;;11.50;99.90;;;;;;5062785;28;20207;-54
2022/04/18 01:28:58;;;;;;;7.87;5.27;;;11.70;99.90;;;;;;5062815;28;20197;-55
2022/04/18 01:31:38;;;;;;;5.83;4.30;;;11.70;99.90;;;;;;5062621;28;20756;-54
2022/04/18 01:34:07;;;;;;;4.67;4.27;;;11.60;99.90;;;;;;5061822;28;20206;-54
2022/04/18 01:36:34;;;;;;;5.57;5.00;;;11.60;99.90;;;;;;5047879;28;20222;-54
2022/04/18 01:39:01;;;;;;;7.77;4.77;;;11.50;99.90;;;;;;5065010;28;20235;-54
2022/04/18 01:41:28;;;;;;;8.80;5.10;;;11.50;99.90;;;;;;5063838;28;20234;-53
2022/04/18 01:43:55;;;;;;;4.83;4.20;;;11.40;99.90;;;;;;5064287;28;20199;-54
2022/04/18 01:46:21;;;;;;;6.07;4.47;;;11.30;99.90;;;;;;5062294;28;20199;-52
2022/04/18 01:48:51;;;;;;;5.73;4.57;;;11.30;99.90;;;;;;5059275;28;20260;-55
2022/04/18 01:51:19;;;;;;;6.17;4.50;;;11.30;99.90;;;;;;5063067;28;20310;-53
2022/04/18 01:53:47;;;;;;;7.10;4.90;;;11.30;99.90;;;;;;5062106;28;20660;-53
2022/04/18 01:56:14;;;;;;;5.97;4.33;;;11.30;99.90;;;;;;5062790;28;20227;-53
2022/04/18 01:58:41;;;;;;;7.57;4.10;;;11.30;99.90;;;;;;5047084;28;20242;-54
2022/04/18 02:01:08;;;;;;;5.53;3.60;;;11.30;99.90;;;;;;5059705;28;20202;-53
2022/04/18 02:03:35;;;;;;;5.73;4.03;;;11.20;99.90;;;;;;5060894;28;20200;-53
2022/04/18 02:06:02;;;;;;;4.60;3.90;;;11.10;99.90;;;;;;5064423;28;20196;-54
2022/04/18 02:08:29;;;;;;;5.33;4.13;;;11.00;99.90;;;;;;5063469;28;20204;-54
2022/04/18 02:10:56;;;;;;;4.80;3.60;;;11.10;99.90;;;;;;5065199;28;20196;-54
2022/04/18 02:13:24;;;;;;;3.57;3.23;;;11.00;99.90;;;;;;5066370;28;20290;-54
2022/04/18 02:15:51;;;;;;;6.10;3.67;;;11.00;99.90;;;;;;5063163;28;20264;-55
2022/04/18 02:18:17;;;;;;;5.47;3.97;;;11.00;99.90;;;;;;5060330;28;20199;-53
2022/04/18 02:20:44;;;;;;;4.60;3.83;;;11.00;99.90;;;;;;5065399;28;20807;-54
2022/04/18 02:23:11;;;;;;;5.80;4.20;;;11.00;99.90;;;;;;5061340;28;20305;-54
2022/04/18 02:25:38;;;;;;;4.60;3.70;;;11.00;99.90;;;;;;5061357;28;20250;-54
2022/04/18 02:28:05;;;;;;;5.13;3.60;;;10.80;99.90;;;;;;5063818;28;20242;-54
2022/04/18 02:30:32;;;;;;;4.03;3.63;;;10.80;99.90;;;;;;5058085;28;20207;-54
2022/04/18 02:32:59;;;;;;;4.20;3.67;;;10.80;99.90;;;;;;5061952;28;20240;-53
2022/04/18 02:35:26;;;;;;;4.97;3.30;;;10.80;99.90;;;;;;5045103;28;20203;-54
2022/04/18 02:37:54;;;;;;;4.03;3.40;;;10.60;99.90;;;;;;5063349;28;20224;-54
2022/04/18 02:40:22;;;;;;;6.20;3.40;;;10.60;99.90;;;;;;5066141;28;20199;-54
2022/04/18 02:42:49;;;;;;;4.57;3.33;;;10.60;99.90;;;;;;5064113;28;20209;-54
2022/04/18 02:45:20;;;;;;;4.00;3.03;;;10.60;99.90;;;;;;5057209;28;20256;-53
2022/04/18 02:47:48;;;;;;;5.13;3.17;;;10.70;99.90;;;;;;5064290;28;20203;-53
2022/04/18 02:50:15;;;;;;;4.37;3.40;;;10.60;99.90;;;;;;5061837;28;20212;-53
2022/04/18 02:52:42;;;;;;;3.70;3.37;;;10.60;99.90;;;;;;5064318;28;20207;-53
2022/04/18 02:55:11;;;;;;;6.03;3.67;;;10.70;99.90;;;;;;5062690;28;20269;-52
2022/04/18 02:57:39;;;;;;;4.53;3.30;;;10.70;99.90;;;;;;5062698;28;20236;-53
2022/04/18 03:00:08;;;;;;;6.00;2.97;;;10.60;99.90;;;;;;5063589;28;20199;-52
2022/04/18 03:02:35;;;;;;;3.67;3.10;;;10.60;99.90;;;;;;5064137;28;20253;-52
2022/04/18 03:05:04;;;;;;;3.83;3.13;;;10.50;99.90;;;;;;5063955;28;20205;-55
2022/04/18 03:07:32;;;;;;;6.13;3.40;;;10.50;99.90;;;;;;5067487;28;20295;-53
2022/04/18 03:09:59;;;;;;;5.90;3.63;;;10.40;99.90;;;;;;5067238;28;20208;-53
2022/04/18 03:12:27;;;;;;;3.60;3.30;;;10.40;99.90;;;;;;5064112;28;20267;-53
2022/04/18 03:14:54;;;;;;;3.97;2.90;;;10.40;99.90;;;;;;5063087;28;20203;-53
2022/04/18 03:17:20;;;;;;;6.57;3.77;;;10.30;99.90;;;;;;5064324;28;20199;-53
2022/04/18 03:19:47;;;;;;;4.80;3.50;;;10.30;99.90;;;;;;5067811;28;20286;-52
2022/04/18 03:22:14;;;;;;;4.17;3.30;;;10.30;99.90;;;;;;5068117;28;20232;-53
2022/04/18 03:24:41;;;;;;;4.27;3.00;;;10.30;99.90;;;;;;5066127;28;20240;-53
2022/04/18 03:27:08;;;;;;;4.63;3.30;;;10.20;99.90;;;;;;5064570;28;20235;-53
2022/04/18 03:29:36;;;;;;;4.00;3.03;;;10.20;99.90;;;;;;5066791;28;20246;-52
2022/04/18 03:32:03;;;;;;;4.83;3.20;;;10.20;99.90;;;;;;5064948;28;20242;-53
2022/04/18 03:34:30;;;;;;;4.77;3.63;;;10.20;99.90;;;;;;5064838;28;20608;-53
2022/04/18 03:39:52;;;;;;;4.87;3.70;;;10.10;99.90;;;;;;5067291;28;20199;-53
2022/04/18 03:42:28;;;;;;;3.87;3.13;;;10.10;99.90;;;;;;5066575;28;20347;-54
2022/04/18 03:45:00;;;;;;;4.17;3.00;;;10.10;99.90;;;;;;5061987;28;20560;-54
2022/04/18 03:47:27;;;;;;;3.70;3.20;;;10.00;99.90;;;;;;5067083;28;20205;-54
2022/04/18 03:49:55;;;;;;;6.20;3.23;;;10.00;99.90;;;;;;5069044;28;20733;-54
2022/04/18 03:52:23;;;;;;;3.97;3.33;;;9.90;99.90;;;;;;5064884;28;20255;-54
2022/04/18 03:54:51;;;;;;;4.60;3.13;;;9.80;99.90;;;;;;5050749;28;20195;-53
2022/04/18 03:57:18;;;;;;;3.57;2.90;;;9.80;99.90;;;;;;5067537;28;20241;-54
2022/04/18 03:59:44;;;;;;;8.03;3.50;;;9.80;99.90;;;;;;5065877;28;20207;-53
2022/04/18 04:02:12;;;;;;;3.57;3.00;;;9.70;99.90;;;;;;5065252;28;20210;-51
2022/04/18 04:04:39;;;;;;;5.73;4.10;;;9.60;99.90;;;;;;5061864;28;20204;-59
2022/04/18 04:07:06;;;;;;;4.43;3.47;;;9.60;99.90;;;;;;5063918;28;20763;-53
2022/04/18 04:09:34;;;;;;;3.97;3.50;;;9.60;99.90;;;;;;5063039;28;20205;-52
2022/04/18 04:12:03;;;;;;;3.87;3.47;;;9.60;99.90;;;;;;5058630;28;20222;-53
2022/04/18 04:14:30;;;;;;;3.53;2.70;;;9.60;99.90;;;;;;5062010;28;20232;-53
2022/04/18 04:16:57;;;;;;;4.90;3.20;;;9.60;99.90;;;;;;5063966;28;20259;-53
2022/04/18 04:19:24;;;;;;;3.33;2.53;;;9.70;99.90;;;;;;5061608;28;20642;-53
2022/04/18 04:21:50;;;;;;;3.33;2.80;;;9.70;99.90;;;;;;5064720;28;20227;-53
2022/04/18 04:24:17;;;;;;;4.37;2.97;;;9.70;99.90;;;;;;5064052;28;20210;-54
2022/04/18 04:26:44;;;;;;;4.07;2.93;;;9.60;99.90;;;;;;5067062;28;20237;-53
2022/04/18 04:29:11;;;;;;;4.03;3.00;;;9.60;99.90;;;;;;5065074;28;20202;-54
2022/04/18 04:31:39;;;;;;;4.27;2.97;;;9.50;99.90;;;;;;5059175;28;20196;-54
2022/04/18 04:34:05;;;;;;;4.00;2.73;;;9.50;99.90;;;;;;5062225;28;20667;-53
2022/04/18 04:36:38;;;;;;;4.23;2.70;;;9.50;99.90;;;;;;5064578;28;20221;-54
2022/04/18 04:39:05;;;;;;;7.33;3.43;;;9.40;99.90;;;;;;5065225;28;20644;-53
2022/04/18 04:41:32;;;;;;;4.53;3.10;;;9.40;99.90;;;;;;5057053;28;20652;-53
2022/04/18 04:43:58;;;;;;;3.17;2.73;;;9.40;99.90;;;;;;5058768;28;20206;-54
2022/04/18 04:46:26;;;;;;;4.03;3.10;;;9.40;99.90;;;;;;5062142;28;20203;-54
2022/04/18 04:48:54;;;;;;;4.57;3.13;;;9.40;99.90;;;;;;5062380;28;20833;-54
2022/04/18 04:51:21;;;;;;;5.87;3.03;;;9.50;99.90;;;;;;5065509;28;20668;-54
2022/04/18 04:53:48;;;;;;;6.47;3.17;;;9.50;99.90;;;;;;5065095;28;20216;-54
2022/04/18 04:56:17;;;;;;;3.93;3.53;;;9.50;99.90;;;;;;5064099;28;20197;-53
2022/04/18 04:58:44;;;;;;;4.30;3.20;;;9.50;99.90;;;;;;5043485;28;20259;-52
2022/04/18 05:01:11;;;;;;;6.20;3.70;;;9.30;99.90;;;;;;5059911;28;20715;-53
2022/04/18 05:03:38;;;;;;;3.83;3.10;;;9.40;99.90;;;;;;5063430;28;20219;-53
2022/04/18 05:06:07;;;;;;;4.30;3.33;;;9.30;99.90;;;;;;5062353;28;20426;-54
2022/04/18 05:08:34;;;;;;;4.00;2.83;;;9.40;99.90;;;;;;5064946;28;20232;-54
2022/04/18 05:11:01;;;;;;;4.63;3.63;;;9.40;99.90;;;;;;5066032;28;20206;-53
2022/04/18 05:13:28;;;;;;;5.50;3.40;;;9.50;99.90;;;;;;5062348;28;20218;-54
2022/04/18 05:15:55;;;;;;;4.97;3.20;;;9.40;99.90;;;;;;5063675;28;20657;-53
2022/04/18 05:18:22;;;;;;;5.93;3.40;;;9.50;99.90;;;;;;5060796;28;20270;-53
2022/04/18 05:20:49;;;;;;;4.27;3.70;;;9.30;99.90;;;;;;5063642;28;20210;-53
2022/04/18 05:23:16;;;;;;;4.93;3.30;;;9.40;99.90;;;;;;5064409;28;20591;-53
2022/04/18 05:25:43;;;;;;;5.47;4.03;;;9.40;99.90;;;;;;5061841;28;20242;-54
2022/04/18 05:28:10;;;;;;;8.23;4.23;;;9.40;99.90;;;;;;5064718;28;20321;-53
2022/04/18 05:30:37;;;;;;;4.23;3.50;;;9.50;99.90;;;;;;5060931;28;20720;-53
2022/04/18 05:33:04;;;;;;;3.53;3.10;;;9.40;99.90;;;;;;5062069;28;20213;-53
2022/04/18 05:35:31;;;;;;;5.20;4.30;;;9.20;99.90;;;;;;5061871;28;20198;-54
2022/04/18 05:37:58;;;;;;;6.60;3.37;;;9.20;99.90;;;;;;5064353;28;20215;-53
2022/04/18 05:40:24;;;;;;;4.53;3.60;;;9.10;99.90;;;;;;5065454;28;20379;-52
2022/04/18 05:42:52;;;;;;;5.50;3.80;;;8.90;99.90;;;;;;5064437;28;20714;-53
2022/04/18 05:45:19;;;;;;;4.90;3.10;;;9.00;99.90;;;;;;5059474;28;20295;-53
2022/04/18 05:47:46;;;;;;;6.03;3.60;;;9.10;99.90;;;;;;5061015;28;20214;-53
2022/04/18 05:50:13;;;;;;;4.70;3.47;;;9.00;99.90;;;;;;5062735;28;20714;-53
2022/04/18 05:52:39;;;;;;;7.13;3.30;;;9.20;99.90;;;;;;5063528;28;20748;-53
2022/04/18 05:55:07;;;;;;;5.50;3.53;;;9.40;99.90;;;;;;5064303;28;20294;-53
2022/04/18 05:57:35;;;;;;;4.77;3.47;;;9.50;99.90;;;;;;5059546;28;20292;-53
2022/04/18 06:00:03;;;;;;;7.30;3.60;;;9.50;99.90;;;;;;5062433;28;20285;-54
2022/04/18 06:02:30;;;;;;;5.90;3.50;;;9.60;99.90;;;;;;5060919;28;20647;-54
2022/04/18 06:05:03;;;;;;;5.03;3.60;;;9.70;99.90;;;;;;5065155;28;20229;-53
2022/04/18 06:07:30;;;;;;;6.33;3.67;;;9.70;99.90;;;;;;5062642;28;20311;-53
2022/04/18 06:09:56;;;;;;;6.20;3.57;;;9.80;99.90;;;;;;5063510;28;20192;-52
2022/04/18 06:12:24;;;;;;;6.07;3.50;;;9.80;99.90;;;;;;5041722;28;20210;-54
2022/04/18 06:14:50;;;;;;;3.80;2.87;;;10.00;99.90;;;;;;5064015;28;20244;-52
2022/04/18 06:17:17;;;;;;;4.03;3.63;;;10.20;99.90;;;;;;5061674;28;20202;-53
2022/04/18 06:19:44;;;;;;;4.57;3.33;;;10.30;99.90;;;;;;5045420;28;20296;-53
2022/04/18 06:22:11;;;;;;;5.13;3.37;;;10.30;99.90;;;;;;5063454;28;20300;-53
2022/04/18 06:24:38;;;;;;;4.67;3.70;;;10.30;99.90;;;;;;5060369;28;20210;-53
2022/04/18 06:27:05;;;;;;;6.50;3.67;;;10.40;99.90;;;;;;5063056;28;20620;-53
2022/04/18 06:29:32;;;;;;;3.57;3.17;;;10.50;99.90;;;;;;5062003;28;20730;-53
2022/04/18 06:31:59;;;;;;;3.73;3.40;;;10.60;99.90;;;;;;5061090;28;20190;-53
2022/04/18 06:34:26;;;;;;;6.70;3.53;;;10.80;99.90;;;;;;5065038;28;20224;-53
2022/04/18 06:36:53;;;;;;;3.63;3.17;;;10.70;99.90;;;;;;5064692;28;20188;-53
2022/04/18 06:39:20;;;;;;;4.33;3.33;;;10.70;99.90;;;;;;5062103;28;20449;-54
2022/04/18 06:41:47;;;;;;;5.43;3.37;;;11.10;99.90;;;;;;5067557;28;20275;-54
2022/04/18 06:44:14;;;;;;;3.37;2.70;;;11.30;99.90;;;;;;5066167;28;20198;-54
2022/04/18 06:46:41;;;;;;;6.50;3.30;;;11.70;99.90;;;;;;5068168;28;20658;-54
2022/04/18 06:49:07;;;;;;;4.30;3.57;;;12.00;99.90;;;;;;5048465;28;20202;-53
2022/04/18 06:51:34;;;;;;;4.13;3.73;;;12.10;99.90;;;;;;5063802;28;20648;-52
2022/04/18 06:54:01;;;;;;;4.07;2.97;;;12.50;99.90;;;;;;5048643;28;20336;-53
2022/04/18 06:59:13;;;;;;;3.87;3.17;;;12.80;99.90;;;;;;5066845;28;20223;-53
2022/04/18 07:01:40;;;;;;;3.67;2.73;;;12.90;99.90;;;;;;5063134;28;20298;-53
2022/04/18 07:04:07;;;;;;;4.27;3.30;;;12.70;99.90;;;;;;5065022;28;20195;-53
2022/04/18 07:06:34;;;;;;;3.80;2.60;;;12.60;99.90;;;;;;5063560;28;20257;-53
2022/04/18 07:09:01;;;;;;;3.00;2.67;;;12.90;99.90;;;;;;5065859;28;20606;-53
2022/04/18 07:11:28;;;;;;;3.37;2.80;;;13.30;99.90;;;;;;5064692;28;20658;-52
2022/04/18 07:13:55;;;;;;;3.17;2.50;;;13.70;99.90;;;;;;5062149;28;20223;-53
2022/04/18 07:16:22;;;;;;;3.43;2.57;;;14.10;99.90;;;;;;5066189;28;20610;-57
2022/04/18 07:18:49;;;;;;;2.90;2.40;;;13.80;99.90;;;;;;5064180;28;20270;-54
2022/04/18 07:21:16;;;;;;;3.70;2.40;;;14.30;99.90;;;;;;5058399;28;20210;-54
2022/04/18 07:23:42;;;;;;;4.03;2.70;;;14.70;99.90;;;;;;5066455;28;20661;-54
2022/04/18 07:26:09;;;;;;;4.73;2.83;;;14.90;99.90;;;;;;5066146;28;20275;-53
2022/04/18 07:28:38;;;;;;;4.30;2.40;;;15.10;99.90;;;;;;5061248;28;21056;-54
2022/04/18 07:31:08;;;;;;;4.87;2.33;;;15.00;99.90;;;;;;5062912;28;20197;-54
2022/04/18 07:33:35;;;;;;;2.73;2.50;;;15.10;99.90;;;;;;5060347;28;20587;-54
2022/04/18 07:36:03;;;;;;;3.87;2.53;;;15.20;99.90;;;;;;5066714;28;20258;-52
2022/04/18 07:38:48;;;;;;;3.20;2.60;;;15.40;99.90;;;;;;5067369;28;20672;-54
2022/04/18 07:41:23;;;;;;;3.50;2.50;;;15.50;99.90;;;;;;5067583;28;20209;-54
2022/04/18 07:43:50;;;;;;;3.67;2.40;;;15.50;99.90;;;;;;5069384;28;20657;-58
2022/04/18 07:46:18;;;;;;;2.83;2.30;;;15.50;99.90;;;;;;5069779;28;20661;-53
2022/04/18 07:48:48;;;;;;;3.40;1.87;;;15.10;99.90;;;;;;5065983;28;20250;-54
2022/04/18 07:54:03;;;;;;;4.87;2.40;;;15.60;99.90;;;;;;5068347;28;20696;-54
2022/04/18 07:56:30;;;;;;;2.90;2.10;;;16.00;99.90;;;;;;5065002;28;20662;-54
2022/04/18 07:58:57;;;;;;;2.73;2.17;;;16.10;99.90;;;;;;5066986;28;20617;-54
2022/04/18 08:01:29;;;;;;;2.37;2.00;;;15.80;99.90;;;;;;5069257;28;20209;-54
2022/04/18 08:04:00;;;;;;;2.43;2.00;;;15.50;99.90;;;;;;5058930;28;20299;-53
2022/04/18 08:06:31;;;;;;;2.60;2.30;;;15.90;99.90;;;;;;5070729;28;20221;-53
2022/04/18 08:08:59;;;;;;;2.83;2.03;;;16.00;99.90;;;;;;5067995;28;20246;-53
2022/04/18 08:11:26;;;;;;;3.63;2.00;;;15.60;99.90;;;;;;5069976;28;20297;-54
2022/04/18 08:13:53;;;;;;;2.73;2.50;;;15.60;99.90;;;;;;5069338;28;20734;-54
2022/04/18 08:16:22;;;;;;;4.03;2.30;;;16.00;99.90;;;;;;5070798;28;20707;-54
2022/04/18 08:18:49;;;;;;;2.87;2.40;;;16.50;99.90;;;;;;5069110;28;20207;-54
2022/04/18 08:21:17;;;;;;;2.43;2.23;;;16.80;99.90;;;;;;5070072;28;20204;-53
2022/04/18 08:23:45;;;;;;;2.47;2.07;;;16.70;99.90;;;;;;5070358;28;20252;-55
2022/04/18 08:26:12;;;;;;;2.73;1.90;;;16.30;99.90;;;;;;5067113;28;20281;-53
2022/04/18 08:28:40;;;;;;;5.77;2.17;;;15.80;99.90;;;;;;5070099;28;20253;-53
2022/04/18 08:31:08;;;;;;;2.47;1.83;;;15.90;99.90;;;;;;5067573;28;20207;-53
2022/04/18 08:33:35;;;;;;;3.70;1.90;;;16.20;99.90;;;;;;5069298;28;20769;-53
2022/04/18 08:36:02;;;;;;;2.47;1.73;;;16.80;99.90;;;;;;5069834;28;20200;-54
2022/04/18 08:38:29;;;;;;;2.03;1.60;;;17.00;99.90;;;;;;5070665;28;20634;-55
2022/04/18 08:41:00;;;;;;;2.00;1.50;;;16.60;99.90;;;;;;5070335;28;20263;-53
2022/04/18 08:43:27;;;;;;;1.70;1.60;;;16.60;99.90;;;;;;5066808;28;20207;-53
2022/04/18 08:45:56;;;;;;;1.67;1.37;;;16.80;99.90;;;;;;5068511;28;20203;-52
2022/04/18 08:53:58;;;;;;;3.80;1.57;;;16.90;99.90;;;;;;5053582;28;20216;-54
2022/04/18 08:56:26;;;;;;;3.43;1.90;;;17.10;99.90;;;;;;5064969;28;20218;-54
2022/04/18 08:58:54;;;;;;;2.03;1.80;;;17.60;99.90;;;;;;5063964;28;20200;-51
2022/04/18 09:01:21;;;;;;;3.87;2.30;;;17.80;99.90;;;;;;5062371;28;20207;-54
2022/04/18 09:03:49;;;;;;;2.90;1.87;;;17.90;99.90;;;;;;5064114;28;20203;-52
2022/04/18 09:06:16;;;;;;;2.60;1.80;;;16.90;99.90;;;;;;5065124;28;20269;-52
2022/04/18 09:08:51;;;;;;;3.07;2.00;;;17.40;99.90;;;;;;5061123;28;20203;-55
2022/04/18 09:11:37;;;;;;;2.17;1.80;;;17.60;99.90;;;;;;5060232;28;20191;-53
2022/04/18 09:14:08;;;;;;;2.33;1.80;;;17.50;99.90;;;;;;5059876;28;20229;-53
2022/04/18 09:16:37;;;;;;;1.97;1.67;;;17.70;99.90;;;;;;5061723;28;20607;-53
2022/04/18 09:19:05;;;;;;;3.40;2.10;;;17.50;99.90;;;;;;5062466;28;20261;-53
2022/04/18 09:21:32;;;;;;;3.33;1.80;;;17.30;99.90;;;;;;5064043;28;20219;-53
2022/04/18 09:23:59;;;;;;;5.77;2.50;;;17.90;99.90;;;;;;5061789;28;20234;-53
2022/04/18 09:26:26;;;;;;;3.90;1.80;;;18.00;99.90;;;;;;5062532;28;20574;-53
2022/04/18 09:29:05;;;;;;;3.57;1.80;;;17.70;99.90;;;;;;5063413;28;20297;-54
2022/04/18 09:31:39;;;;;;;2.50;2.30;;;17.30;99.90;;;;;;5060526;28;20227;-53
2022/04/18 09:34:07;;;;;;;3.23;1.87;;;17.60;99.90;;;;;;5058853;28;20226;-53
2022/04/18 09:36:34;;;;;;;2.83;1.93;;;17.30;99.90;;;;;;5063842;28;20199;-52
2022/04/18 09:39:01;;;;;;;3.07;2.00;;;17.00;99.90;;;;;;5059373;28;20202;-53
2022/04/18 09:41:32;;;;;;;2.73;2.47;;;17.10;99.90;;;;;;5063317;28;20245;-52
2022/04/18 09:43:59;;;;;;;1.63;1.50;;;17.10;99.90;;;;;;5059900;28;20251;-53
2022/04/18 09:46:26;;;;;;;5.90;2.40;;;17.40;99.90;;;;;;5061993;28;20543;-52
2022/04/18 09:49:01;;;;;;;4.13;2.33;;;17.30;99.90;;;;;;5060057;28;20644;-54
2022/04/18 09:51:37;;;;;;;2.33;1.73;;;17.90;99.90;;;;;;5060512;28;20291;-58
2022/04/18 09:54:06;;;;;;;3.93;2.10;;;17.70;99.90;;;;;;5060770;28;20220;-52
2022/04/18 09:56:33;;;;;;;3.87;2.53;;;18.20;99.90;;;;;;5062201;28;20229;-52
2022/04/18 09:59:01;;;;;;;3.13;2.17;;;18.40;99.90;;;;;;5062162;28;20191;-53
2022/04/18 10:01:33;;;;;;;3.17;2.20;;;18.30;99.90;;;;;;5060830;28;20199;-53
2022/04/18 10:04:03;;;;;;;2.40;2.10;;;17.70;99.90;;;;;;5059233;28;20624;-53
2022/04/18 10:06:31;;;;;;;5.23;2.23;;;17.50;99.90;;;;;;5061023;28;20219;-52
2022/04/18 10:08:58;;;;;;;3.00;1.90;;;17.80;99.90;;;;;;5063409;28;20207;-53
2022/04/18 10:11:25;;;;;;;3.10;1.87;;;17.90;99.90;;;;;;5060931;28;20206;-52
2022/04/18 10:13:52;;;;;;;2.13;1.83;;;18.40;99.90;;;;;;5061266;28;20237;-53
2022/04/18 10:16:19;;;;;;;4.10;1.90;;;18.60;99.90;;;;;;5065829;28;20196;-53
2022/04/18 10:18:52;;;;;;;2.00;1.80;;;18.80;99.90;;;;;;5067257;28;20205;-53
2022/04/18 10:21:27;;;;;;;3.57;2.07;;;18.90;99.90;;;;;;5066502;28;20285;-54
2022/04/18 10:24:35;;;;;;;2.00;1.80;;;19.00;99.90;;;;;;5065005;28;20276;-52
2022/04/18 10:27:33;;;;;;;3.93;2.37;;;19.10;99.90;;;;;;4981019;28;20242;-55
2022/04/18 10:30:01;;;;;;;2.10;1.90;;;18.80;99.90;;;;;;4979467;28;20297;-55
2022/04/18 10:32:29;;;;;;;2.90;2.10;;;18.20;99.90;;;;;;4981707;28;20359;-54
2022/04/18 10:35:01;;;;;;;2.30;2.10;;;18.10;99.90;;;;;;4966802;28;20328;-53
2022/04/18 10:37:30;;;;;;;2.87;1.90;;;18.30;99.90;;;;;;4983950;28;20594;-55
2022/04/18 10:39:59;;;;;;;2.47;2.17;;;18.40;99.90;;;;;;4968097;28;20206;-54
2022/04/18 10:42:31;;;;;;;2.20;2.00;;;18.60;99.90;;;;;;4983751;28;20485;-54
2022/04/18 10:44:59;;;;;;;2.03;1.83;;;19.00;99.90;;;;;;4982262;28;20643;-50
2022/04/18 10:47:46;;;;;;;2.73;2.10;;;18.90;99.90;;;;;;4982294;28;20251;-55
2022/04/18 10:50:19;;;;;;;3.93;2.87;;;18.60;99.90;;;;;;4982219;28;20208;-55
2022/04/18 10:53:06;;;;;;;4.30;2.10;;;18.90;99.90;;;;;;4981243;28;20513;-54
2022/04/18 10:55:32;;;;;;;3.53;2.20;;;18.80;99.90;;;;;;4969532;28;20226;-56
2022/04/18 10:58:14;;;;;;;2.43;2.03;;;18.70;99.90;;;;;;4967066;28;20199;-53
2022/04/18 11:01:00;;;;;;;3.13;1.93;;;18.80;99.90;;;;;;5008157;28;20202;-53
2022/04/18 11:03:46;;;;;;;2.03;1.83;;;19.40;99.90;;;;;;5062233;28;20286;-53
2022/04/18 11:06:16;;;;;;;2.93;1.73;;;19.50;99.90;;;;;;5063934;28;20523;-51
2022/04/18 11:09:03;;;;;;;2.40;2.10;;;19.60;99.90;;;;;;5065969;28;20642;-53
2022/04/18 11:11:42;;;;;;;2.63;1.80;;;19.40;99.90;;;;;;5063193;28;20271;-53
2022/04/18 11:14:19;;;;;;;2.20;1.90;;;19.40;99.90;;;;;;5062551;28;20307;-53
2022/04/18 11:16:48;;;;;;;2.83;2.00;;;19.60;99.90;;;;;;5064046;28;20232;-54
2022/04/18 11:19:15;;;;;;;2.60;2.27;;;20.00;99.90;;;;;;5065221;28;20203;-53
2022/04/18 11:21:58;;;;;;;3.50;2.10;;;19.90;99.90;;;;;;5064701;28;20220;-53
2022/04/18 11:24:51;;;;;;;2.33;1.90;;;20.10;99.90;;;;;;5065984;28;20191;-53
2022/04/18 11:27:23;;;;;;;2.00;1.80;;;19.90;99.90;;;;;;5066026;28;20315;-55
2022/04/18 11:30:05;;;;;;;2.07;1.77;;;20.20;99.90;;;;;;5063247;28;20203;-53
2022/04/18 11:32:44;;;;;;;2.23;1.90;;;19.90;99.90;;;;;;5063419;28;20318;-53
2022/04/18 11:35:14;;;;;;;3.13;2.83;;;20.10;99.90;;;;;;5042532;28;20211;-53
2022/04/18 11:37:44;;;;;;;2.90;2.23;;;20.00;99.90;;;;;;5065939;28;20864;-54
2022/04/18 11:40:13;;;;;;;2.37;2.17;;;19.70;99.90;;;;;;5066472;28;20195;-54
2022/04/18 11:42:41;;;;;;;4.37;2.10;;;20.30;99.90;;;;;;5048065;28;20273;-54
2022/04/18 11:45:10;;;;;;;2.53;2.20;;;20.60;99.90;;;;;;5060474;28;20377;-53
2022/04/18 11:47:44;;;;;;;4.30;2.33;;;20.80;99.90;;;;;;5058368;28;20253;-52
2022/04/18 11:50:13;;;;;;;3.60;2.23;;;20.40;99.90;;;;;;5060997;28;20293;-54
2022/04/18 11:52:41;;;;;;;4.10;2.00;;;20.30;99.90;;;;;;5058345;28;20628;-52
2022/04/18 11:55:18;;;;;;;1.90;1.70;;;20.70;99.90;;;;;;5059157;28;20310;-53
2022/04/18 11:57:49;;;;;;;2.97;1.80;;;20.70;99.90;;;;;;5058824;28;20256;-53
2022/04/18 12:08:42;;;;;;;3.03;1.90;;;22.00;99.90;;;;;;5060634;28;20211;-55
2022/04/18 12:11:08;;;;;;;4.23;2.50;;;21.90;99.90;;;;;;5066270;28;20221;-54
2022/04/18 12:13:43;;;;;;;2.87;2.23;;;21.80;99.90;;;;;;5059967;28;20703;-55
2022/04/18 12:16:17;;;;;;;2.60;2.30;;;21.70;99.90;;;;;;5060808;28;20215;-53
2022/04/18 12:18:45;;;;;;;2.97;2.63;;;21.50;99.90;;;;;;5060896;28;20196;-54
2022/04/18 12:21:15;;;;;;;4.00;2.07;;;22.10;99.90;;;;;;5061044;28;20203;-54
2022/04/18 12:23:43;;;;;;;3.30;1.93;;;22.60;99.90;;;;;;5067989;28;20207;-53
2022/04/18 12:26:11;;;;;;;2.63;2.40;;;22.30;99.90;;;;;;5063479;28;20332;-53
2022/04/18 12:28:38;;;;;;;2.40;2.20;;;21.90;99.90;;;;;;5060779;28;20213;-53
2022/04/18 12:31:10;;;;;;;3.00;2.40;;;21.70;99.90;;;;;;5062888;28;20651;-54
2022/04/18 12:33:48;;;;;;;2.30;2.10;;;22.10;99.90;;;;;;5064022;28;20195;-54
2022/04/18 12:36:41;;;;;;;3.10;2.37;;;22.50;99.90;;;;;;5043690;28;20507;-53
2022/04/18 12:39:19;;;;;;;2.87;2.53;;;21.90;99.90;;;;;;5063406;28;20290;-53
2022/04/18 12:41:46;;;;;;;3.00;2.30;;;21.40;99.90;;;;;;5063989;28;20650;-53
2022/04/18 12:44:14;;;;;;;2.67;2.20;;;21.70;99.90;;;;;;5064195;28;20579;-54
2022/04/18 12:46:41;;;;;;;2.77;2.50;;;21.40;99.90;;;;;;5058506;28;20646;-58
2022/04/18 12:49:12;;;;;;;3.37;2.33;;;21.60;99.90;;;;;;5059186;28;20694;-52
2022/04/18 12:51:42;;;;;;;4.47;2.50;;;21.50;99.90;;;;;;5063865;28;20200;-53
2022/04/18 12:54:22;;;;;;;4.17;2.53;;;21.10;99.90;;;;;;5067968;28;20593;-53
2022/04/18 12:56:50;;;;;;;4.13;2.50;;;21.60;99.90;;;;;;5065273;28;20244;-53
2022/04/18 12:59:27;;;;;;;3.40;2.50;;;22.00;99.90;;;;;;5064762;28;20615;-53
2022/04/18 13:02:08;;;;;;;4.07;2.80;;;22.30;99.90;;;;;;5060474;28;20245;-54
2022/04/18 13:04:35;;;;;;;4.63;2.50;;;21.70;99.90;;;;;;5062245;28;20205;-54
2022/04/18 13:07:06;;;;;;;4.27;2.70;;;21.40;99.90;;;;;;5063275;28;20200;-53
2022/04/18 13:09:33;;;;;;;3.73;3.00;;;21.70;99.90;;;;;;5061161;28;20199;-54
2022/04/18 13:12:10;;;;;;;3.47;2.77;;;21.90;99.90;;;;;;5059870;28;20294;-54
2022/04/18 13:14:58;;;;;;;4.10;2.87;;;22.10;99.90;;;;;;5058302;28;20249;-54
2022/04/18 13:17:25;;;;;;;3.00;2.67;;;22.60;99.90;;;;;;5058126;28;20247;-54
2022/04/18 13:19:52;;;;;;;3.70;2.93;;;22.70;99.90;;;;;;5060990;28;20611;-54
2022/04/18 13:22:19;;;;;;;3.13;2.40;;;22.10;99.90;;;;;;5065829;28;20219;-56